Harris, Michigan
Current Conditions -  °F | °C
As of 10:55 AM on Friday 28 Nov 2014 (Local Time) from KESC Reporting Station
Overcast Overcast  
Wind Chill:   Ceiling: 10000
Heat Index: 16°   Visibility: 10mi
Dew Point:   Wind: 9mph
Humidity: 53%   Direction: 270°W
Pressure: 30.14"   Gusts: NA
Location:  45.7°N, 87.35°W
Report Text: KESC 281655Z AUTO 27008KT 10SM OVC100 M09/M17 A3014 RMK AO1
Loading
Personal Weather Stations






























Interactive Weather Map New forecast layout! Learn more

10-Day Weather Forecast

Advertisements
Track Severe Weather on mobile